sensor_id;sensor_type;location;lat;lon;timestamp;P1;durP1;ratioP1;P2;durP2;ratioP2
2538;SDS011;1280;49.760;9.664;2022-07-29T00:02:14;7.80;;;2.77;;
2538;SDS011;1280;49.760;9.664;2022-07-29T00:04:42;8.50;;;2.80;;
2538;SDS011;1280;49.760;9.664;2022-07-29T00:07:10;8.50;;;3.27;;
2538;SDS011;1280;49.760;9.664;2022-07-29T00:09:39;6.00;;;2.80;;
2538;SDS011;1280;49.760;9.664;2022-07-29T00:12:17;7.80;;;2.97;;
2538;SDS011;1280;49.760;9.664;2022-07-29T00:14:52;9.53;;;3.17;;
2538;SDS011;1280;49.760;9.664;2022-07-29T00:17:22;8.20;;;3.13;;
2538;SDS011;1280;49.760;9.664;2022-07-29T00:19:51;6.93;;;2.83;;
2538;SDS011;1280;49.760;9.664;2022-07-29T00:22:20;7.07;;;3.07;;
2538;SDS011;1280;49.760;9.664;2022-07-29T00:24:48;6.00;;;2.30;;
2538;SDS011;1280;49.760;9.664;2022-07-29T00:27:16;8.10;;;3.40;;
2538;SDS011;1280;49.760;9.664;2022-07-29T00:29:44;7.97;;;3.27;;
2538;SDS011;1280;49.760;9.664;2022-07-29T00:32:12;7.13;;;3.00;;
2538;SDS011;1280;49.760;9.664;2022-07-29T00:34:42;11.20;;;4.23;;
2538;SDS011;1280;49.760;9.664;2022-07-29T00:37:27;8.33;;;3.30;;
2538;SDS011;1280;49.760;9.664;2022-07-29T00:39:55;6.60;;;2.83;;
2538;SDS011;1280;49.760;9.664;2022-07-29T00:42:23;7.07;;;3.30;;
2538;SDS011;1280;49.760;9.664;2022-07-29T00:44:51;7.80;;;2.73;;
2538;SDS011;1280;49.760;9.664;2022-07-29T00:47:19;8.47;;;3.43;;
2538;SDS011;1280;49.760;9.664;2022-07-29T00:49:48;6.57;;;3.30;;
2538;SDS011;1280;49.760;9.664;2022-07-29T00:52:17;8.20;;;3.27;;
2538;SDS011;1280;49.760;9.664;2022-07-29T00:54:45;7.57;;;3.30;;
2538;SDS011;1280;49.760;9.664;2022-07-29T00:57:13;11.23;;;3.33;;
2538;SDS011;1280;49.760;9.664;2022-07-29T00:59:41;10.60;;;3.23;;
2538;SDS011;1280;49.760;9.664;2022-07-29T01:02:09;6.87;;;3.00;;
2538;SDS011;1280;49.760;9.664;2022-07-29T01:04:37;11.27;;;3.63;;
2538;SDS011;1280;49.760;9.664;2022-07-29T01:07:07;6.20;;;2.97;;
2538;SDS011;1280;49.760;9.664;2022-07-29T01:09:35;5.73;;;3.10;;
2538;SDS011;1280;49.760;9.664;2022-07-29T01:12:13;6.47;;;3.40;;
2538;SDS011;1280;49.760;9.664;2022-07-29T01:14:44;6.43;;;3.40;;
2538;SDS011;1280;49.760;9.664;2022-07-29T01:17:14;6.73;;;3.23;;
2538;SDS011;1280;49.760;9.664;2022-07-29T01:19:48;8.23;;;3.60;;
2538;SDS011;1280;49.760;9.664;2022-07-29T01:22:35;12.33;;;2.83;;
2538;SDS011;1280;49.760;9.664;2022-07-29T01:25:29;9.07;;;2.90;;
2538;SDS011;1280;49.760;9.664;2022-07-29T01:31:25;6.40;;;3.20;;
2538;SDS011;1280;49.760;9.664;2022-07-29T01:34:02;9.80;;;3.50;;
2538;SDS011;1280;49.760;9.664;2022-07-29T01:36:35;10.10;;;3.70;;
2538;SDS011;1280;49.760;9.664;2022-07-29T01:39:08;6.90;;;3.13;;
2538;SDS011;1280;49.760;9.664;2022-07-29T01:41:40;8.00;;;3.00;;
2538;SDS011;1280;49.760;9.664;2022-07-29T01:44:16;7.37;;;3.27;;
2538;SDS011;1280;49.760;9.664;2022-07-29T01:46:51;8.20;;;3.40;;
2538;SDS011;1280;49.760;9.664;2022-07-29T01:49:23;7.00;;;3.90;;
2538;SDS011;1280;49.760;9.664;2022-07-29T01:51:54;7.87;;;3.50;;
2538;SDS011;1280;49.760;9.664;2022-07-29T01:54:26;7.13;;;3.43;;
2538;SDS011;1280;49.760;9.664;2022-07-29T01:56:59;8.20;;;3.50;;
2538;SDS011;1280;49.760;9.664;2022-07-29T01:59:30;7.17;;;3.97;;
2538;SDS011;1280;49.760;9.664;2022-07-29T02:02:03;10.60;;;3.83;;
2538;SDS011;1280;49.760;9.664;2022-07-29T02:04:35;7.50;;;3.80;;
2538;SDS011;1280;49.760;9.664;2022-07-29T02:07:05;7.33;;;3.90;;
2538;SDS011;1280;49.760;9.664;2022-07-29T02:09:34;7.00;;;3.30;;
2538;SDS011;1280;49.760;9.664;2022-07-29T02:12:04;11.00;;;3.60;;
2538;SDS011;1280;49.760;9.664;2022-07-29T02:14:37;12.03;;;3.40;;
2538;SDS011;1280;49.760;9.664;2022-07-29T02:17:07;7.77;;;3.60;;
2538;SDS011;1280;49.760;9.664;2022-07-29T02:19:36;9.00;;;3.50;;
2538;SDS011;1280;49.760;9.664;2022-07-29T02:22:06;10.10;;;3.73;;
2538;SDS011;1280;49.760;9.664;2022-07-29T02:24:35;7.63;;;3.40;;
2538;SDS011;1280;49.760;9.664;2022-07-29T02:27:06;7.90;;;4.27;;
2538;SDS011;1280;49.760;9.664;2022-07-29T02:29:36;7.27;;;3.90;;
2538;SDS011;1280;49.760;9.664;2022-07-29T02:32:06;9.63;;;3.63;;
2538;SDS011;1280;49.760;9.664;2022-07-29T02:34:37;6.93;;;3.53;;
2538;SDS011;1280;49.760;9.664;2022-07-29T02:37:07;9.90;;;3.70;;
2538;SDS011;1280;49.760;9.664;2022-07-29T02:39:37;16.10;;;4.10;;
2538;SDS011;1280;49.760;9.664;2022-07-29T02:42:09;7.93;;;3.60;;
2538;SDS011;1280;49.760;9.664;2022-07-29T02:44:41;10.90;;;4.03;;
2538;SDS011;1280;49.760;9.664;2022-07-29T02:47:10;8.30;;;3.90;;
2538;SDS011;1280;49.760;9.664;2022-07-29T02:49:46;10.00;;;4.13;;
2538;SDS011;1280;49.760;9.664;2022-07-29T02:52:18;10.10;;;4.17;;
2538;SDS011;1280;49.760;9.664;2022-07-29T02:54:51;7.77;;;3.80;;
2538;SDS011;1280;49.760;9.664;2022-07-29T02:57:26;8.33;;;3.70;;
2538;SDS011;1280;49.760;9.664;2022-07-29T03:00:00;9.23;;;3.37;;
2538;SDS011;1280;49.760;9.664;2022-07-29T03:02:33;7.90;;;3.40;;
2538;SDS011;1280;49.760;9.664;2022-07-29T03:05:04;7.47;;;3.57;;
2538;SDS011;1280;49.760;9.664;2022-07-29T03:07:36;10.37;;;4.27;;
2538;SDS011;1280;49.760;9.664;2022-07-29T03:10:14;8.63;;;3.57;;
2538;SDS011;1280;49.760;9.664;2022-07-29T03:12:42;9.13;;;4.10;;
2538;SDS011;1280;49.760;9.664;2022-07-29T03:15:12;7.20;;;3.40;;
2538;SDS011;1280;49.760;9.664;2022-07-29T03:17:41;7.60;;;3.53;;
2538;SDS011;1280;49.760;9.664;2022-07-29T03:20:10;8.40;;;3.30;;
2538;SDS011;1280;49.760;9.664;2022-07-29T03:22:39;8.83;;;4.30;;
2538;SDS011;1280;49.760;9.664;2022-07-29T03:25:09;9.13;;;3.60;;
2538;SDS011;1280;49.760;9.664;2022-07-29T03:27:38;8.83;;;3.67;;
2538;SDS011;1280;49.760;9.664;2022-07-29T03:30:06;7.83;;;3.73;;
2538;SDS011;1280;49.760;9.664;2022-07-29T03:32:38;8.60;;;3.60;;
2538;SDS011;1280;49.760;9.664;2022-07-29T03:35:06;7.67;;;3.80;;
2538;SDS011;1280;49.760;9.664;2022-07-29T03:37:35;7.47;;;4.00;;
2538;SDS011;1280;49.760;9.664;2022-07-29T03:40:05;8.40;;;4.10;;
2538;SDS011;1280;49.760;9.664;2022-07-29T03:42:36;7.70;;;3.60;;
2538;SDS011;1280;49.760;9.664;2022-07-29T03:45:08;8.73;;;4.10;;
2538;SDS011;1280;49.760;9.664;2022-07-29T03:47:40;9.73;;;3.40;;
2538;SDS011;1280;49.760;9.664;2022-07-29T03:50:17;7.47;;;4.13;;
2538;SDS011;1280;49.760;9.664;2022-07-29T03:52:46;8.33;;;4.27;;
2538;SDS011;1280;49.760;9.664;2022-07-29T03:55:15;9.00;;;4.10;;
2538;SDS011;1280;49.760;9.664;2022-07-29T03:57:44;10.57;;;4.60;;
2538;SDS011;1280;49.760;9.664;2022-07-29T04:00:13;8.77;;;4.10;;
2538;SDS011;1280;49.760;9.664;2022-07-29T04:02:44;10.07;;;4.10;;
2538;SDS011;1280;49.760;9.664;2022-07-29T04:05:15;9.00;;;4.20;;
2538;SDS011;1280;49.760;9.664;2022-07-29T04:07:44;9.60;;;3.83;;
2538;SDS011;1280;49.760;9.664;2022-07-29T04:10:13;8.70;;;4.17;;
2538;SDS011;1280;49.760;9.664;2022-07-29T04:12:55;9.10;;;4.30;;
2538;SDS011;1280;49.760;9.664;2022-07-29T04:15:23;11.43;;;4.00;;
2538;SDS011;1280;49.760;9.664;2022-07-29T04:17:57;11.93;;;4.40;;
2538;SDS011;1280;49.760;9.664;2022-07-29T04:20:26;11.90;;;3.93;;
2538;SDS011;1280;49.760;9.664;2022-07-29T04:22:54;10.70;;;3.90;;
2538;SDS011;1280;49.760;9.664;2022-07-29T04:25:22;7.03;;;4.20;;
2538;SDS011;1280;49.760;9.664;2022-07-29T04:27:50;7.57;;;3.77;;
2538;SDS011;1280;49.760;9.664;2022-07-29T04:30:30;7.90;;;3.90;;
2538;SDS011;1280;49.760;9.664;2022-07-29T04:33:01;10.17;;;4.73;;
2538;SDS011;1280;49.760;9.664;2022-07-29T04:35:30;10.93;;;4.20;;
2538;SDS011;1280;49.760;9.664;2022-07-29T04:38:03;8.33;;;3.90;;
2538;SDS011;1280;49.760;9.664;2022-07-29T04:40:32;9.50;;;4.00;;
2538;SDS011;1280;49.760;9.664;2022-07-29T04:43:03;13.33;;;3.80;;
2538;SDS011;1280;49.760;9.664;2022-07-29T04:45:32;7.67;;;3.97;;
2538;SDS011;1280;49.760;9.664;2022-07-29T04:48:01;9.43;;;4.30;;
2538;SDS011;1280;49.760;9.664;2022-07-29T04:50:30;10.43;;;4.00;;
2538;SDS011;1280;49.760;9.664;2022-07-29T04:52:58;7.27;;;3.60;;
2538;SDS011;1280;49.760;9.664;2022-07-29T04:55:26;13.50;;;4.13;;
2538;SDS011;1280;49.760;9.664;2022-07-29T04:57:54;10.17;;;4.23;;
2538;SDS011;1280;49.760;9.664;2022-07-29T05:00:22;11.57;;;4.23;;
2538;SDS011;1280;49.760;9.664;2022-07-29T05:02:58;13.70;;;4.30;;
2538;SDS011;1280;49.760;9.664;2022-07-29T05:05:28;8.10;;;4.60;;
2538;SDS011;1280;49.760;9.664;2022-07-29T05:07:56;8.83;;;4.30;;
2538;SDS011;1280;49.760;9.664;2022-07-29T05:10:24;9.23;;;4.70;;
2538;SDS011;1280;49.760;9.664;2022-07-29T05:12:52;8.30;;;3.93;;
2538;SDS011;1280;49.760;9.664;2022-07-29T05:15:20;13.77;;;4.70;;
2538;SDS011;1280;49.760;9.664;2022-07-29T05:17:48;11.83;;;4.00;;
2538;SDS011;1280;49.760;9.664;2022-07-29T05:20:16;10.37;;;4.60;;
2538;SDS011;1280;49.760;9.664;2022-07-29T05:22:45;10.93;;;3.93;;
2538;SDS011;1280;49.760;9.664;2022-07-29T05:25:14;9.93;;;4.00;;
2538;SDS011;1280;49.760;9.664;2022-07-29T05:27:42;15.10;;;4.20;;
2538;SDS011;1280;49.760;9.664;2022-07-29T05:30:10;11.03;;;4.30;;
2538;SDS011;1280;49.760;9.664;2022-07-29T05:32:38;6.80;;;3.80;;
2538;SDS011;1280;49.760;9.664;2022-07-29T05:35:06;9.53;;;3.40;;
2538;SDS011;1280;49.760;9.664;2022-07-29T05:37:35;13.07;;;4.80;;
2538;SDS011;1280;49.760;9.664;2022-07-29T05:40:05;11.03;;;4.00;;
2538;SDS011;1280;49.760;9.664;2022-07-29T05:42:33;10.40;;;4.10;;
2538;SDS011;1280;49.760;9.664;2022-07-29T05:45:02;8.87;;;3.90;;
2538;SDS011;1280;49.760;9.664;2022-07-29T05:47:31;8.30;;;3.73;;
2538;SDS011;1280;49.760;9.664;2022-07-29T05:49:59;11.60;;;3.80;;
2538;SDS011;1280;49.760;9.664;2022-07-29T05:52:27;7.87;;;3.57;;
2538;SDS011;1280;49.760;9.664;2022-07-29T05:54:55;9.70;;;4.17;;
2538;SDS011;1280;49.760;9.664;2022-07-29T05:57:25;14.30;;;4.17;;
2538;SDS011;1280;49.760;9.664;2022-07-29T05:59:52;10.60;;;4.07;;
2538;SDS011;1280;49.760;9.664;2022-07-29T06:02:20;11.83;;;4.60;;
2538;SDS011;1280;49.760;9.664;2022-07-29T06:04:48;9.13;;;3.60;;
2538;SDS011;1280;49.760;9.664;2022-07-29T06:07:16;14.00;;;3.70;;
2538;SDS011;1280;49.760;9.664;2022-07-29T06:09:44;10.00;;;4.00;;
2538;SDS011;1280;49.760;9.664;2022-07-29T06:12:12;7.67;;;3.60;;
2538;SDS011;1280;49.760;9.664;2022-07-29T06:14:42;9.00;;;3.57;;
2538;SDS011;1280;49.760;9.664;2022-07-29T06:17:10;11.07;;;4.50;;
2538;SDS011;1280;49.760;9.664;2022-07-29T06:19:38;13.73;;;4.03;;
2538;SDS011;1280;49.760;9.664;2022-07-29T06:22:06;10.00;;;4.67;;
2538;SDS011;1280;49.760;9.664;2022-07-29T06:24:35;7.40;;;3.27;;
2538;SDS011;1280;49.760;9.664;2022-07-29T06:27:03;9.13;;;3.50;;
2538;SDS011;1280;49.760;9.664;2022-07-29T06:29:31;9.23;;;3.63;;
2538;SDS011;1280;49.760;9.664;2022-07-29T06:32:01;10.80;;;3.77;;
2538;SDS011;1280;49.760;9.664;2022-07-29T06:34:29;8.63;;;3.87;;
2538;SDS011;1280;49.760;9.664;2022-07-29T06:36:57;31.23;;;7.20;;
2538;SDS011;1280;49.760;9.664;2022-07-29T06:39:25;8.90;;;3.80;;
2538;SDS011;1280;49.760;9.664;2022-07-29T06:41:54;8.80;;;3.53;;
2538;SDS011;1280;49.760;9.664;2022-07-29T06:44:23;6.53;;;3.13;;
2538;SDS011;1280;49.760;9.664;2022-07-29T06:46:51;10.03;;;3.27;;
2538;SDS011;1280;49.760;9.664;2022-07-29T06:49:22;7.27;;;3.70;;
2538;SDS011;1280;49.760;9.664;2022-07-29T06:51:52;13.73;;;4.67;;
2538;SDS011;1280;49.760;9.664;2022-07-29T06:54:20;10.20;;;3.33;;
2538;SDS011;1280;49.760;9.664;2022-07-29T06:56:48;8.60;;;3.80;;
2538;SDS011;1280;49.760;9.664;2022-07-29T06:59:16;7.90;;;4.03;;
2538;SDS011;1280;49.760;9.664;2022-07-29T07:01:51;13.77;;;4.13;;
2538;SDS011;1280;49.760;9.664;2022-07-29T07:04:19;11.20;;;3.87;;
2538;SDS011;1280;49.760;9.664;2022-07-29T07:06:48;9.87;;;3.30;;
2538;SDS011;1280;49.760;9.664;2022-07-29T07:09:16;10.00;;;3.90;;
2538;SDS011;1280;49.760;9.664;2022-07-29T07:11:44;7.13;;;3.10;;
2538;SDS011;1280;49.760;9.664;2022-07-29T07:14:15;9.27;;;3.40;;
2538;SDS011;1280;49.760;9.664;2022-07-29T07:16:43;8.03;;;3.83;;
2538;SDS011;1280;49.760;9.664;2022-07-29T07:19:11;12.50;;;3.40;;
2538;SDS011;1280;49.760;9.664;2022-07-29T07:21:39;7.67;;;4.07;;
2538;SDS011;1280;49.760;9.664;2022-07-29T07:24:09;10.40;;;3.67;;
2538;SDS011;1280;49.760;9.664;2022-07-29T07:26:38;9.00;;;4.30;;
2538;SDS011;1280;49.760;9.664;2022-07-29T07:29:06;9.37;;;3.40;;
2538;SDS011;1280;49.760;9.664;2022-07-29T07:31:34;8.10;;;3.40;;
2538;SDS011;1280;49.760;9.664;2022-07-29T07:34:04;5.90;;;3.50;;
2538;SDS011;1280;49.760;9.664;2022-07-29T07:36:32;10.63;;;3.90;;
2538;SDS011;1280;49.760;9.664;2022-07-29T07:39:00;8.40;;;3.73;;
2538;SDS011;1280;49.760;9.664;2022-07-29T07:41:30;10.33;;;3.57;;
2538;SDS011;1280;49.760;9.664;2022-07-29T07:43:58;7.30;;;3.70;;
2538;SDS011;1280;49.760;9.664;2022-07-29T07:46:26;8.67;;;3.60;;
2538;SDS011;1280;49.760;9.664;2022-07-29T07:48:54;6.60;;;2.97;;
2538;SDS011;1280;49.760;9.664;2022-07-29T07:51:22;8.13;;;4.30;;
2538;SDS011;1280;49.760;9.664;2022-07-29T07:53:50;10.97;;;3.83;;
2538;SDS011;1280;49.760;9.664;2022-07-29T07:56:19;9.60;;;3.20;;
2538;SDS011;1280;49.760;9.664;2022-07-29T07:58:49;7.80;;;3.50;;
2538;SDS011;1280;49.760;9.664;2022-07-29T08:01:17;8.00;;;3.87;;
2538;SDS011;1280;49.760;9.664;2022-07-29T08:03:47;7.53;;;3.60;;
2538;SDS011;1280;49.760;9.664;2022-07-29T08:06:15;13.37;;;3.70;;
2538;SDS011;1280;49.760;9.664;2022-07-29T08:08:43;11.77;;;3.70;;
2538;SDS011;1280;49.760;9.664;2022-07-29T08:11:14;8.07;;;3.63;;
2538;SDS011;1280;49.760;9.664;2022-07-29T08:13:42;11.70;;;4.10;;
2538;SDS011;1280;49.760;9.664;2022-07-29T08:16:11;8.40;;;3.83;;
2538;SDS011;1280;49.760;9.664;2022-07-29T08:18:41;8.87;;;4.37;;
2538;SDS011;1280;49.760;9.664;2022-07-29T08:21:10;10.53;;;3.83;;
2538;SDS011;1280;49.760;9.664;2022-07-29T08:23:41;11.40;;;3.90;;
2538;SDS011;1280;49.760;9.664;2022-07-29T08:26:24;9.33;;;3.50;;
2538;SDS011;1280;49.760;9.664;2022-07-29T08:28:52;7.90;;;3.57;;
2538;SDS011;1280;49.760;9.664;2022-07-29T08:31:21;9.97;;;3.77;;
2538;SDS011;1280;49.760;9.664;2022-07-29T08:33:49;8.93;;;3.47;;
2538;SDS011;1280;49.760;9.664;2022-07-29T08:36:17;9.70;;;3.73;;
2538;SDS011;1280;49.760;9.664;2022-07-29T08:38:47;6.33;;;2.97;;
2538;SDS011;1280;49.760;9.664;2022-07-29T08:41:15;10.60;;;3.70;;
2538;SDS011;1280;49.760;9.664;2022-07-29T08:43:45;7.30;;;3.40;;
2538;SDS011;1280;49.760;9.664;2022-07-29T08:46:13;6.93;;;3.30;;
2538;SDS011;1280;49.760;9.664;2022-07-29T08:48:42;9.53;;;3.13;;
2538;SDS011;1280;49.760;9.664;2022-07-29T08:51:12;13.77;;;4.00;;
2538;SDS011;1280;49.760;9.664;2022-07-29T08:53:42;10.20;;;3.97;;
2538;SDS011;1280;49.760;9.664;2022-07-29T08:56:11;10.00;;;3.80;;
2538;SDS011;1280;49.760;9.664;2022-07-29T08:58:40;13.13;;;3.67;;
2538;SDS011;1280;49.760;9.664;2022-07-29T09:01:14;6.40;;;3.30;;
2538;SDS011;1280;49.760;9.664;2022-07-29T09:03:47;9.63;;;4.30;;
2538;SDS011;1280;49.760;9.664;2022-07-29T09:06:17;12.57;;;3.80;;
2538;SDS011;1280;49.760;9.664;2022-07-29T09:08:46;12.40;;;4.27;;
2538;SDS011;1280;49.760;9.664;2022-07-29T09:11:15;11.33;;;4.33;;
2538;SDS011;1280;49.760;9.664;2022-07-29T09:13:42;12.23;;;3.53;;
2538;SDS011;1280;49.760;9.664;2022-07-29T09:16:10;6.60;;;3.40;;
2538;SDS011;1280;49.760;9.664;2022-07-29T09:19:00;7.00;;;3.60;;
2538;SDS011;1280;49.760;9.664;2022-07-29T09:21:28;8.40;;;3.57;;
2538;SDS011;1280;49.760;9.664;2022-07-29T09:24:41;13.80;;;4.50;;
2538;SDS011;1280;49.760;9.664;2022-07-29T09:27:17;7.57;;;3.43;;
2538;SDS011;1280;49.760;9.664;2022-07-29T09:29:54;7.40;;;3.17;;
2538;SDS011;1280;49.760;9.664;2022-07-29T09:32:24;12.03;;;4.40;;
2538;SDS011;1280;49.760;9.664;2022-07-29T09:34:59;6.97;;;3.10;;
2538;SDS011;1280;49.760;9.664;2022-07-29T09:37:41;8.13;;;3.40;;
2538;SDS011;1280;49.760;9.664;2022-07-29T09:40:11;6.20;;;3.23;;
2538;SDS011;1280;49.760;9.664;2022-07-29T09:42:42;8.00;;;3.67;;
2538;SDS011;1280;49.760;9.664;2022-07-29T09:45:10;5.93;;;3.20;;
2538;SDS011;1280;49.760;9.664;2022-07-29T09:47:42;6.90;;;3.50;;
2538;SDS011;1280;49.760;9.664;2022-07-29T09:50:16;10.90;;;3.20;;
2538;SDS011;1280;49.760;9.664;2022-07-29T09:52:50;13.27;;;3.80;;
2538;SDS011;1280;49.760;9.664;2022-07-29T09:55:19;7.60;;;3.23;;
2538;SDS011;1280;49.760;9.664;2022-07-29T09:57:47;8.33;;;4.10;;
2538;SDS011;1280;49.760;9.664;2022-07-29T10:00:16;7.47;;;3.83;;
2538;SDS011;1280;49.760;9.664;2022-07-29T10:02:45;9.83;;;4.07;;
2538;SDS011;1280;49.760;9.664;2022-07-29T10:05:19;8.07;;;3.70;;
2538;SDS011;1280;49.760;9.664;2022-07-29T10:07:49;8.77;;;3.47;;
2538;SDS011;1280;49.760;9.664;2022-07-29T10:10:23;7.73;;;3.70;;
2538;SDS011;1280;49.760;9.664;2022-07-29T10:12:53;9.77;;;3.80;;
2538;SDS011;1280;49.760;9.664;2022-07-29T10:15:26;8.43;;;3.80;;
2538;SDS011;1280;49.760;9.664;2022-07-29T10:17:55;7.13;;;3.87;;
2538;SDS011;1280;49.760;9.664;2022-07-29T10:20:26;8.17;;;3.90;;
2538;SDS011;1280;49.760;9.664;2022-07-29T10:22:55;7.77;;;3.70;;
2538;SDS011;1280;49.760;9.664;2022-07-29T10:25:23;8.07;;;3.30;;
2538;SDS011;1280;49.760;9.664;2022-07-29T10:27:52;8.40;;;3.00;;
2538;SDS011;1280;49.760;9.664;2022-07-29T10:30:21;5.70;;;3.07;;
2538;SDS011;1280;49.760;9.664;2022-07-29T10:32:54;6.20;;;3.10;;
2538;SDS011;1280;49.760;9.664;2022-07-29T10:35:47;5.60;;;3.00;;
2538;SDS011;1280;49.760;9.664;2022-07-29T10:38:42;6.50;;;3.00;;
2538;SDS011;1280;49.760;9.664;2022-07-29T10:41:21;6.10;;;3.10;;
2538;SDS011;1280;49.760;9.664;2022-07-29T10:44:12;7.40;;;2.80;;
2538;SDS011;1280;49.760;9.664;2022-07-29T10:46:44;6.20;;;3.37;;
2538;SDS011;1280;49.760;9.664;2022-07-29T10:49:15;7.53;;;3.17;;
2538;SDS011;1280;49.760;9.664;2022-07-29T10:51:52;9.43;;;2.73;;
2538;SDS011;1280;49.760;9.664;2022-07-29T10:54:46;12.53;;;3.17;;
2538;SDS011;1280;49.760;9.664;2022-07-29T10:57:17;6.53;;;2.93;;
2538;SDS011;1280;49.760;9.664;2022-07-29T11:00:28;7.03;;;3.10;;
2538;SDS011;1280;49.760;9.664;2022-07-29T11:02:57;7.30;;;2.87;;
2538;SDS011;1280;49.760;9.664;2022-07-29T11:05:53;7.60;;;3.13;;
2538;SDS011;1280;49.760;9.664;2022-07-29T11:08:26;7.27;;;2.67;;
2538;SDS011;1280;49.760;9.664;2022-07-29T11:14:09;6.80;;;3.33;;
2538;SDS011;1280;49.760;9.664;2022-07-29T11:19:31;5.70;;;2.70;;
2538;SDS011;1280;49.760;9.664;2022-07-29T11:22:01;6.00;;;3.50;;
2538;SDS011;1280;49.760;9.664;2022-07-29T11:24:32;5.83;;;3.10;;
2538;SDS011;1280;49.760;9.664;2022-07-29T11:27:11;6.03;;;3.47;;
2538;SDS011;1280;49.760;9.664;2022-07-29T11:29:49;7.13;;;3.17;;
2538;SDS011;1280;49.760;9.664;2022-07-29T11:32:22;5.07;;;2.83;;
2538;SDS011;1280;49.760;9.664;2022-07-29T11:35:13;5.80;;;3.10;;
2538;SDS011;1280;49.760;9.664;2022-07-29T11:37:44;7.37;;;3.07;;
2538;SDS011;1280;49.760;9.664;2022-07-29T11:40:22;7.70;;;3.30;;
2538;SDS011;1280;49.760;9.664;2022-07-29T11:42:50;5.30;;;3.10;;
2538;SDS011;1280;49.760;9.664;2022-07-29T11:45:27;6.23;;;3.13;;
2538;SDS011;1280;49.760;9.664;2022-07-29T11:48:16;6.60;;;4.07;;
2538;SDS011;1280;49.760;9.664;2022-07-29T11:50:57;5.47;;;3.00;;
2538;SDS011;1280;49.760;9.664;2022-07-29T11:53:26;8.20;;;3.30;;
2538;SDS011;1280;49.760;9.664;2022-07-29T11:56:00;10.53;;;4.20;;
2538;SDS011;1280;49.760;9.664;2022-07-29T11:58:29;7.70;;;4.00;;
2538;SDS011;1280;49.760;9.664;2022-07-29T12:00:57;5.63;;;3.83;;
2538;SDS011;1280;49.760;9.664;2022-07-29T12:03:32;9.50;;;3.83;;
2538;SDS011;1280;49.760;9.664;2022-07-29T12:06:02;5.60;;;3.63;;
2538;SDS011;1280;49.760;9.664;2022-07-29T12:08:39;7.67;;;3.37;;
2538;SDS011;1280;49.760;9.664;2022-07-29T12:11:16;8.60;;;4.30;;
2538;SDS011;1280;49.760;9.664;2022-07-29T12:13:47;8.60;;;3.00;;
2538;SDS011;1280;49.760;9.664;2022-07-29T12:16:16;7.30;;;3.43;;
2538;SDS011;1280;49.760;9.664;2022-07-29T12:18:58;8.87;;;4.10;;
2538;SDS011;1280;49.760;9.664;2022-07-29T12:21:29;6.80;;;4.03;;
2538;SDS011;1280;49.760;9.664;2022-07-29T12:24:25;6.63;;;4.03;;
2538;SDS011;1280;49.760;9.664;2022-07-29T12:26:55;5.93;;;3.93;;
2538;SDS011;1280;49.760;9.664;2022-07-29T12:29:24;7.13;;;3.67;;
2538;SDS011;1280;49.760;9.664;2022-07-29T12:32:01;6.70;;;3.57;;
2538;SDS011;1280;49.760;9.664;2022-07-29T12:34:44;6.57;;;3.47;;
2538;SDS011;1280;49.760;9.664;2022-07-29T12:37:13;10.73;;;4.43;;
2538;SDS011;1280;49.760;9.664;2022-07-29T12:39:41;7.43;;;3.67;;
2538;SDS011;1280;49.760;9.664;2022-07-29T12:42:14;12.10;;;4.23;;
2538;SDS011;1280;49.760;9.664;2022-07-29T12:44:45;8.00;;;3.80;;
2538;SDS011;1280;49.760;9.664;2022-07-29T12:47:14;14.30;;;4.30;;
2538;SDS011;1280;49.760;9.664;2022-07-29T12:49:44;5.97;;;3.77;;
2538;SDS011;1280;49.760;9.664;2022-07-29T12:52:28;6.00;;;3.60;;
2538;SDS011;1280;49.760;9.664;2022-07-29T12:54:58;7.97;;;3.97;;
2538;SDS011;1280;49.760;9.664;2022-07-29T12:57:28;5.43;;;3.30;;
2538;SDS011;1280;49.760;9.664;2022-07-29T13:00:03;8.30;;;3.70;;
2538;SDS011;1280;49.760;9.664;2022-07-29T13:02:34;7.10;;;4.00;;
2538;SDS011;1280;49.760;9.664;2022-07-29T13:05:03;7.50;;;4.17;;
2538;SDS011;1280;49.760;9.664;2022-07-29T13:07:34;8.30;;;4.60;;
2538;SDS011;1280;49.760;9.664;2022-07-29T13:10:23;8.00;;;5.10;;
2538;SDS011;1280;49.760;9.664;2022-07-29T13:13:02;9.30;;;5.20;;
2538;SDS011;1280;49.760;9.664;2022-07-29T13:15:36;7.50;;;4.50;;
2538;SDS011;1280;49.760;9.664;2022-07-29T13:18:05;7.43;;;3.83;;
2538;SDS011;1280;49.760;9.664;2022-07-29T13:20:52;7.30;;;3.93;;
2538;SDS011;1280;49.760;9.664;2022-07-29T13:23:20;6.67;;;4.00;;
2538;SDS011;1280;49.760;9.664;2022-07-29T13:25:49;9.00;;;4.50;;
2538;SDS011;1280;49.760;9.664;2022-07-29T13:28:18;12.70;;;5.27;;
2538;SDS011;1280;49.760;9.664;2022-07-29T13:30:47;7.63;;;4.93;;
2538;SDS011;1280;49.760;9.664;2022-07-29T13:33:15;8.20;;;4.47;;
2538;SDS011;1280;49.760;9.664;2022-07-29T13:35:44;6.90;;;4.20;;
2538;SDS011;1280;49.760;9.664;2022-07-29T13:38:13;9.03;;;4.90;;
2538;SDS011;1280;49.760;9.664;2022-07-29T13:40:41;9.10;;;4.77;;
2538;SDS011;1280;49.760;9.664;2022-07-29T13:43:09;7.50;;;5.00;;
2538;SDS011;1280;49.760;9.664;2022-07-29T13:45:39;7.40;;;4.70;;
2538;SDS011;1280;49.760;9.664;2022-07-29T13:48:07;6.50;;;4.13;;
2538;SDS011;1280;49.760;9.664;2022-07-29T13:50:35;7.20;;;4.60;;
2538;SDS011;1280;49.760;9.664;2022-07-29T13:53:03;11.60;;;5.77;;
2538;SDS011;1280;49.760;9.664;2022-07-29T13:55:31;7.43;;;5.10;;
2538;SDS011;1280;49.760;9.664;2022-07-29T13:57:59;8.00;;;4.73;;
2538;SDS011;1280;49.760;9.664;2022-07-29T14:00:29;8.30;;;4.50;;
2538;SDS011;1280;49.760;9.664;2022-07-29T14:02:59;7.87;;;4.40;;
2538;SDS011;1280;49.760;9.664;2022-07-29T14:05:27;7.87;;;4.80;;
2538;SDS011;1280;49.760;9.664;2022-07-29T14:07:55;9.40;;;5.00;;
2538;SDS011;1280;49.760;9.664;2022-07-29T14:10:23;11.00;;;5.80;;
2538;SDS011;1280;49.760;9.664;2022-07-29T14:12:51;10.20;;;4.50;;
2538;SDS011;1280;49.760;9.664;2022-07-29T14:15:18;9.23;;;5.50;;
2538;SDS011;1280;49.760;9.664;2022-07-29T14:17:47;7.17;;;4.80;;
2538;SDS011;1280;49.760;9.664;2022-07-29T14:20:16;9.03;;;5.60;;
2538;SDS011;1280;49.760;9.664;2022-07-29T14:22:44;8.03;;;4.97;;
2538;SDS011;1280;49.760;9.664;2022-07-29T14:25:12;9.23;;;5.70;;
2538;SDS011;1280;49.760;9.664;2022-07-29T14:27:41;8.10;;;5.20;;
2538;SDS011;1280;49.760;9.664;2022-07-29T14:30:10;7.20;;;4.97;;
2538;SDS011;1280;49.760;9.664;2022-07-29T14:32:38;7.83;;;5.17;;
2538;SDS011;1280;49.760;9.664;2022-07-29T14:35:07;7.70;;;4.73;;
2538;SDS011;1280;49.760;9.664;2022-07-29T14:37:39;10.27;;;5.83;;
2538;SDS011;1280;49.760;9.664;2022-07-29T14:40:08;7.30;;;5.07;;
2538;SDS011;1280;49.760;9.664;2022-07-29T14:42:37;7.90;;;5.63;;
2538;SDS011;1280;49.760;9.664;2022-07-29T14:45:06;11.30;;;6.13;;
2538;SDS011;1280;49.760;9.664;2022-07-29T14:47:35;9.80;;;6.60;;
2538;SDS011;1280;49.760;9.664;2022-07-29T14:50:04;12.50;;;6.27;;
2538;SDS011;1280;49.760;9.664;2022-07-29T14:52:33;10.30;;;6.40;;
2538;SDS011;1280;49.760;9.664;2022-07-29T14:55:03;8.87;;;5.57;;
2538;SDS011;1280;49.760;9.664;2022-07-29T14:57:45;9.10;;;5.57;;
2538;SDS011;1280;49.760;9.664;2022-07-29T15:00:14;12.10;;;6.77;;
2538;SDS011;1280;49.760;9.664;2022-07-29T15:02:42;9.80;;;5.87;;
2538;SDS011;1280;49.760;9.664;2022-07-29T15:05:27;11.73;;;5.60;;
2538;SDS011;1280;49.760;9.664;2022-07-29T15:07:55;13.33;;;5.23;;
2538;SDS011;1280;49.760;9.664;2022-07-29T15:10:25;10.23;;;5.90;;
2538;SDS011;1280;49.760;9.664;2022-07-29T15:12:53;8.80;;;5.77;;
2538;SDS011;1280;49.760;9.664;2022-07-29T15:15:21;8.70;;;6.67;;
2538;SDS011;1280;49.760;9.664;2022-07-29T15:17:49;8.43;;;5.80;;
2538;SDS011;1280;49.760;9.664;2022-07-29T15:20:17;9.13;;;5.73;;
2538;SDS011;1280;49.760;9.664;2022-07-29T15:22:45;8.40;;;5.83;;
2538;SDS011;1280;49.760;9.664;2022-07-29T15:25:13;9.27;;;5.90;;
2538;SDS011;1280;49.760;9.664;2022-07-29T15:27:43;9.47;;;5.50;;
2538;SDS011;1280;49.760;9.664;2022-07-29T15:30:18;11.63;;;6.57;;
2538;SDS011;1280;49.760;9.664;2022-07-29T15:32:59;11.33;;;7.20;;
2538;SDS011;1280;49.760;9.664;2022-07-29T15:35:27;13.40;;;6.57;;
2538;SDS011;1280;49.760;9.664;2022-07-29T15:37:55;11.43;;;5.97;;
2538;SDS011;1280;49.760;9.664;2022-07-29T15:40:23;14.27;;;6.57;;
2538;SDS011;1280;49.760;9.664;2022-07-29T15:42:53;9.53;;;5.87;;
2538;SDS011;1280;49.760;9.664;2022-07-29T15:45:21;12.77;;;5.97;;
2538;SDS011;1280;49.760;9.664;2022-07-29T15:47:49;9.50;;;6.40;;